Time;durP1;ratioP1;P1;durP2;ratioP2;P2;SDS_P1;SDS_P2;PMS_P1;PMS_P2;Temp;Humidity;BMP_temperature;BMP_pressure;BME280_temperature;BME280_humidity;BME280_pressure;Samples;Min_cycle;Max_cycle;Signal;HPM_P1;HPM_P2
2020/12/19 00:00:10;;;;;;;15.10;7.88;;;;;;;3.02;87.61;99205.16;5048416;28;20086;-77
2020/12/19 00:02:35;;;;;;;17.42;8.48;;;;;;;3.11;88.84;99191.91;5052892;28;20032;-77
2020/12/19 00:05:02;;;;;;;12.45;7.65;;;;;;;3.27;89.29;99187.63;5052545;28;20091;-77
2020/12/19 00:07:27;;;;;;;12.80;7.55;;;;;;;3.50;87.78;99211.31;5052738;28;20025;-77
2020/12/19 00:09:52;;;;;;;15.35;7.38;;;;;;;3.71;87.56;99225.25;5052989;28;20437;-77
2020/12/19 00:12:22;;;;;;;14.40;7.47;;;;;;;3.76;87.15;99202.56;5051300;28;20032;-76
2020/12/19 00:14:47;;;;;;;;;;;;;;;3.80;86.75;99217.31;5053023;28;20031;-77
2020/12/19 00:17:13;;;;;;;13.38;7.47;;;;;;;3.81;86.75;99206.50;5044598;28;19984;-77
2020/12/19 00:19:39;;;;;;;10.85;6.80;;;;;;;3.98;85.93;99172.69;5020914;28;20083;-77
2020/12/19 00:22:05;;;;;;;12.60;6.63;;;;;;;4.33;85.46;99185.25;5041533;28;20490;-77
2020/12/19 00:24:31;;;;;;;16.95;8.15;;;;;;;4.27;84.79;99156.41;5040264;28;20029;-77
2020/12/19 00:26:56;;;;;;;20.55;10.93;;;;;;;4.31;84.88;99192.59;5037127;28;20044;-77
2020/12/19 00:29:21;;;;;;;22.02;10.18;;;;;;;4.08;85.57;99180.66;5041089;28;20032;-77
2020/12/19 00:31:46;;;;;;;17.60;9.75;;;;;;;3.83;86.57;99182.25;5050089;28;20033;-77
2020/12/19 00:34:12;;;;;;;16.35;9.00;;;;;;;3.82;86.71;99172.53;5032996;28;20021;-77
2020/12/19 00:36:37;;;;;;;17.27;8.55;;;;;;;3.83;86.84;99176.91;5032670;28;20048;-77
2020/12/19 00:39:05;;;;;;;12.38;7.97;;;;;;;3.71;87.54;99161.03;5040803;28;20057;-77
2020/12/19 00:41:30;;;;;;;16.70;8.15;;;;;;;3.71;87.10;99150.34;5032740;28;20044;-77
2020/12/19 00:43:55;;;;;;;18.42;8.52;;;;;;;3.82;86.96;99167.19;5050584;28;20025;-77
2020/12/19 00:46:22;;;;;;;13.85;7.82;;;;;;;3.91;86.98;99172.47;5050360;28;20039;-77
2020/12/19 00:48:48;;;;;;;12.13;6.93;;;;;;;3.95;86.73;99160.44;5032106;28;20031;-77
2020/12/19 00:51:15;;;;;;;12.98;6.75;;;;;;;4.14;85.85;99156.81;5049502;28;20108;-77
2020/12/19 00:53:41;;;;;;;11.95;6.30;;;;;;;4.17;85.33;99139.59;5032276;28;20031;-77
2020/12/19 00:56:14;;;;;;;13.15;7.00;;;;;;;4.28;85.03;99162.59;5032345;28;20027;-76
2020/12/19 00:58:39;;;;;;;13.88;7.13;;;;;;;4.27;85.40;99167.13;5032653;28;20621;-77
2020/12/19 01:01:05;;;;;;;12.63;7.20;;;;;;;4.12;85.55;99149.91;5049566;28;20032;-77
2020/12/19 01:03:30;;;;;;;12.47;6.57;;;;;;;4.03;86.20;99138.28;5046517;28;20113;-77
2020/12/19 01:05:55;;;;;;;14.15;7.07;;;;;;;4.13;85.77;99152.41;5042841;28;20076;-77
2020/12/19 01:08:20;;;;;;;15.50;7.18;;;;;;;4.02;85.77;99117.03;5049561;28;20096;-77
2020/12/19 01:10:46;;;;;;;12.60;7.07;;;;;;;4.15;85.72;99130.88;5048299;28;20024;-77
2020/12/19 01:13:11;;;;;;;12.35;6.68;;;;;;;4.29;85.69;99150.88;5046413;28;20072;-76
2020/12/19 01:15:36;;;;;;;16.83;7.53;;;;;;;4.14;85.96;99127.34;5034525;28;20025;-77
2020/12/19 01:18:02;;;;;;;13.10;6.65;;;;;;;4.30;85.76;99149.91;5050259;28;20074;-77
2020/12/19 01:20:27;;;;;;;12.52;6.32;;;;;;;4.27;85.69;99145.69;5040873;28;20483;-77
2020/12/19 01:22:52;;;;;;;10.68;6.35;;;;;;;4.30;85.65;99149.91;5047941;28;20025;-74
2020/12/19 01:25:17;;;;;;;12.50;6.45;;;;;;;4.32;85.39;99142.53;5029906;28;20033;-77
2020/12/19 01:27:43;;;;;;;12.10;6.07;;;;;;;4.45;85.36;99148.34;5028899;28;20112;-77
2020/12/19 01:30:08;;;;;;;11.35;6.53;;;;;;;4.42;85.57;99139.78;5042518;28;20025;-76
2020/12/19 01:32:33;;;;;;;11.80;6.35;;;;;;;4.55;84.45;99145.56;5050118;28;20497;-77
2020/12/19 01:34:58;;;;;;;8.60;5.75;;;;;;;4.63;83.79;99139.44;5031735;28;20032;-76
2020/12/19 01:37:24;;;;;;;12.05;5.72;;;;;;;4.64;84.14;99139.28;5032149;28;20666;-77
2020/12/19 01:39:49;;;;;;;10.07;5.60;;;;;;;4.56;83.45;99115.94;5019081;28;20112;-76
2020/12/19 01:42:14;;;;;;;11.02;5.82;;;;;;;4.73;84.27;99140.16;5049571;28;20517;-76
2020/12/19 01:44:40;;;;;;;9.50;5.82;;;;;;;4.68;83.73;99126.41;5039491;28;20033;-76
2020/12/19 01:47:09;;;;;;;11.02;6.68;;;;;;;4.67;84.07;99149.69;5049817;28;20112;-76
2020/12/19 01:49:35;;;;;;;12.50;6.57;;;;;;;4.48;84.53;99144.50;5031926;28;20017;-76
2020/12/19 01:52:04;;;;;;;10.65;6.07;;;;;;;4.35;84.79;99137.72;5050423;28;20071;-76
2020/12/19 01:54:30;;;;;;;11.57;7.00;;;;;;;4.33;84.70;99137.03;5031575;28;20025;-76
2020/12/19 01:56:59;;;;;;;11.27;6.35;;;;;;;4.35;84.90;99150.28;5049882;28;20025;-76
2020/12/19 01:59:26;;;;;;;12.05;6.13;;;;;;;4.24;85.17;99134.44;5047983;28;20031;-76
2020/12/19 02:01:57;;;;;;;12.43;6.75;;;;;;;4.11;85.25;99103.56;5040051;28;20045;-76
2020/12/19 02:04:24;;;;;;;12.30;6.45;;;;;;;4.22;85.00;99113.19;5031044;28;20021;-76
2020/12/19 02:06:51;;;;;;;13.63;6.10;;;;;;;4.39;85.15;99124.84;5027752;28;20116;-76
2020/12/19 02:09:19;;;;;;;13.52;6.60;;;;;;;4.42;84.29;99129.91;5037690;28;20070;-76
2020/12/19 02:11:45;;;;;;;11.48;6.30;;;;;;;4.38;84.93;99120.50;5049687;28;20021;-76
2020/12/19 02:14:12;;;;;;;9.05;5.40;;;;;;;4.48;84.59;99131.09;5017281;28;20096;-76
2020/12/19 02:16:38;;;;;;;11.82;6.38;;;;;;;4.39;85.03;99124.84;5047340;28;20028;-76
2020/12/19 02:19:12;;;;;;;10.82;6.43;;;;;;;4.39;85.04;99132.88;5030367;28;20495;-77
2020/12/19 02:21:41;;;;;;;13.65;5.95;;;;;;;4.55;84.46;99134.84;5049287;28;20043;-76
2020/12/19 02:24:07;;;;;;;12.02;5.97;;;;;;;4.53;84.17;99104.69;5034217;28;20402;-76
2020/12/19 02:26:32;;;;;;;8.88;5.30;;;;;;;4.53;84.37;99112.72;5015684;28;20083;-77
2020/12/19 02:28:57;;;;;;;14.73;6.55;;;;;;;4.49;84.61;99125.59;5041578;28;20046;-76
2020/12/19 02:31:23;;;;;;;10.00;5.70;;;;;;;4.45;84.80;99124.22;5053343;28;20035;-76
2020/12/19 02:33:48;;;;;;;11.82;5.10;;;;;;;4.38;85.45;99123.19;5049099;28;20031;-76
2020/12/19 02:36:13;;;;;;;11.10;6.50;;;;;;;4.29;85.76;99094.63;5053026;28;20028;-76
2020/12/19 02:38:39;;;;;;;12.30;6.47;;;;;;;4.44;85.48;99122.56;5034919;28;20029;-76
2020/12/19 02:41:04;;;;;;;10.45;5.85;;;;;;;4.29;85.64;99108.03;5046872;28;20021;-76
2020/12/19 02:43:30;;;;;;;10.63;6.55;;;;;;;4.33;85.37;99109.41;5041312;28;20053;-76
2020/12/19 02:45:55;;;;;;;10.77;6.00;;;;;;;4.40;85.07;99115.81;5032848;28;20116;-76
2020/12/19 02:48:20;;;;;;;10.35;5.70;;;;;;;4.43;84.99;99102.13;5024158;28;20470;-76
2020/12/19 02:50:45;;;;;;;11.63;5.70;;;;;;;4.68;85.03;99123.72;5043151;28;20482;-76
2020/12/19 02:53:11;;;;;;;8.82;5.47;;;;;;;4.77;83.59;99102.19;5042971;28;20554;-76
2020/12/19 02:55:37;;;;;;;11.95;6.20;;;;;;;4.84;83.35;99099.69;5032659;28;20029;-76
2020/12/19 02:58:02;;;;;;;9.30;5.93;;;;;;;4.73;83.25;99095.44;5040352;28;20490;-77
2020/12/19 03:00:28;;;;;;;11.63;6.40;;;;;;;4.72;83.23;99083.03;5052379;28;20067;-76
2020/12/19 03:02:53;;;;;;;9.98;5.57;;;;;;;4.64;83.64;99082.13;5051369;28;20102;-76
2020/12/19 03:05:18;;;;;;;11.88;6.20;;;;;;;4.70;83.76;99114.53;5034011;28;20039;-76
2020/12/19 03:07:43;;;;;;;10.65;5.20;;;;;;;4.52;84.20;99092.28;5052313;28;20647;-76
2020/12/19 03:10:09;;;;;;;12.18;6.28;;;;;;;4.45;84.55;99089.41;5052582;28;20052;-76
2020/12/19 03:12:34;;;;;;;13.65;6.63;;;;;;;4.13;85.75;99084.66;5052124;28;20043;-76
2020/12/19 03:14:59;;;;;;;12.13;6.60;;;;;;;4.05;85.59;99087.25;5051681;28;20021;-76
2020/12/19 03:17:24;;;;;;;11.02;6.45;;;;;;;3.81;86.54;99106.63;5033997;28;20036;-76
2020/12/19 03:19:50;;;;;;;11.57;6.70;;;;;;;3.37;87.82;99058.34;5031006;28;20071;-76
2020/12/19 03:22:15;;;;;;;12.05;6.43;;;;;;;3.56;88.07;99106.38;5032349;28;20082;-76
2020/12/19 03:24:40;;;;;;;10.45;6.38;;;;;;;3.53;88.61;99098.63;5015823;28;20029;-76
2020/12/19 03:27:05;;;;;;;11.85;6.72;;;;;;;3.48;87.78;99087.56;5051767;28;20078;-76
2020/12/19 03:29:31;;;;;;;11.43;6.22;;;;;;;3.53;88.40;99106.66;5051715;28;20248;-76
2020/12/19 03:31:56;;;;;;;9.88;5.80;;;;;;;3.68;88.15;99115.84;5030163;28;20021;-76
2020/12/19 03:34:21;;;;;;;10.45;6.15;;;;;;;3.62;87.61;99065.66;5030906;28;20379;-76
2020/12/19 03:36:46;;;;;;;9.60;5.80;;;;;;;3.84;86.67;99071.53;5034902;28;20078;-76
2020/12/19 03:39:12;;;;;;;13.45;6.35;;;;;;;3.93;86.06;99092.03;5044662;28;20055;-76
2020/12/19 03:41:37;;;;;;;9.73;5.90;;;;;;;3.98;86.21;99095.06;5033946;28;20031;-77
2020/12/19 03:44:02;;;;;;;11.77;6.32;;;;;;;3.95;85.96;99079.31;5051579;28;20028;-76
2020/12/19 03:46:28;;;;;;;10.98;5.93;;;;;;;3.93;85.94;99100.06;5051486;28;20118;-75
2020/12/19 03:48:53;;;;;;;9.82;6.20;;;;;;;3.66;86.66;99093.75;5051701;28;20513;-76
2020/12/19 03:51:18;;;;;;;12.20;6.03;;;;;;;3.71;87.32;99096.81;5051747;28;20041;-76
2020/12/19 03:53:43;;;;;;;8.00;5.30;;;;;;;3.63;87.37;99083.38;5033324;28;20020;-77
2020/12/19 03:56:09;;;;;;;9.73;5.80;;;;;;;3.71;86.52;99085.28;5051377;28;20375;-76
2020/12/19 03:58:34;;;;;;;10.15;5.10;;;;;;;3.70;87.27;99080.94;5051435;28;20025;-76
2020/12/19 04:00:59;;;;;;;11.85;5.45;;;;;;;3.69;87.07;99088.13;5051514;28;20478;-76
2020/12/19 04:03:24;;;;;;;10.63;5.93;;;;;;;3.63;87.11;99091.41;5044718;28;20040;-77
2020/12/19 04:05:50;;;;;;;10.23;5.60;;;;;;;3.47;87.25;99053.78;5041544;28;20674;-76
2020/12/19 04:08:15;;;;;;;11.50;6.18;;;;;;;3.52;87.54;99070.22;5032677;28;20029;-77
2020/12/19 04:10:40;;;;;;;15.70;7.60;;;;;;;3.51;88.08;99068.53;5029946;28;20497;-77
2020/12/19 04:13:05;;;;;;;13.55;7.45;;;;;;;3.42;88.32;99066.78;5031275;28;20029;-76
2020/12/19 04:15:31;;;;;;;14.90;7.13;;;;;;;3.25;88.53;99065.78;5033265;28;20028;-76
2020/12/19 04:17:56;;;;;;;11.65;6.63;;;;;;;3.21;88.59;99065.22;5035449;28;20086;-76
2020/12/19 04:20:21;;;;;;;12.85;7.25;;;;;;;3.14;88.99;99080.16;5029827;28;20128;-75
2020/12/19 04:22:47;;;;;;;11.38;6.30;;;;;;;3.12;89.02;99075.94;5031299;28;20497;-76
2020/12/19 04:25:13;;;;;;;11.23;6.32;;;;;;;3.11;89.00;99052.88;5042404;28;20475;-75
2020/12/19 04:27:39;;;;;;;11.10;5.95;;;;;;;3.10;89.19;99049.38;5040302;28;20033;-78
2020/12/19 04:30:06;;;;;;;11.88;6.45;;;;;;;3.28;88.72;99078.84;5043644;28;20036;-77
2020/12/19 04:32:31;;;;;;;13.35;6.95;;;;;;;3.11;89.42;99051.06;5035560;28;20040;-77
2020/12/19 04:34:57;;;;;;;13.15;7.32;;;;;;;3.02;89.41;99055.47;5048860;28;20029;-77
2020/12/19 04:37:23;;;;;;;19.52;8.10;;;;;;;3.23;89.23;99073.09;5046061;28;20487;-77
2020/12/19 04:39:49;;;;;;;26.48;8.00;;;;;;;3.08;89.22;99059.38;5035920;28;20056;-76
2020/12/19 04:42:14;;;;;;;12.20;6.00;;;;;;;3.13;89.93;99064.28;5047013;28;20432;-77
2020/12/19 04:44:40;;;;;;;11.45;5.18;;;;;;;3.06;90.05;99051.50;5045819;28;20414;-77
2020/12/19 04:47:06;;;;;;;10.05;5.43;;;;;;;3.27;88.58;99053.94;5049599;28;20049;-77
2020/12/19 04:49:32;;;;;;;10.32;5.15;;;;;;;3.29;87.88;99046.56;5042566;28;20025;-77
2020/12/19 04:51:58;;;;;;;9.93;4.78;;;;;;;3.37;87.56;99055.69;5048321;28;20059;-77
2020/12/19 04:54:23;;;;;;;10.82;4.95;;;;;;;3.25;88.06;99055.91;5045933;28;20025;-73
2020/12/19 04:56:53;;;;;;;8.38;4.72;;;;;;;3.31;86.88;99037.59;5047859;28;20045;-81
2020/12/19 04:59:19;;;;;;;8.20;4.70;;;;;;;3.31;87.18;99030.41;5049464;28;20098;-78
2020/12/19 05:01:44;;;;;;;9.25;4.80;;;;;;;3.38;87.12;99065.38;5021665;28;20033;-74
2020/12/19 05:04:13;;;;;;;7.43;4.43;;;;;;;3.33;87.18;99055.16;5041246;28;20029;-75
2020/12/19 05:06:38;;;;;;;10.43;4.85;;;;;;;3.24;87.87;99056.88;5023665;28;20502;-72
2020/12/19 05:09:03;;;;;;;10.70;5.32;;;;;;;3.22;87.36;99056.22;5047899;28;20039;-73
2020/12/19 05:11:28;;;;;;;11.00;5.65;;;;;;;3.21;87.28;99059.03;5046090;28;20028;-75
2020/12/19 05:13:54;;;;;;;11.25;5.70;;;;;;;3.05;88.11;99060.50;5048378;28;20025;-75
2020/12/19 05:16:19;;;;;;;9.13;4.80;;;;;;;2.89;87.80;99054.16;5048061;28;20037;-74
2020/12/19 05:18:45;;;;;;;10.38;5.00;;;;;;;2.75;88.79;99067.00;5041411;28;20026;-77
2020/12/19 05:21:12;;;;;;;8.43;4.90;;;;;;;2.90;88.33;99048.63;5020672;28;20473;-75
2020/12/19 05:23:43;;;;;;;9.15;5.15;;;;;;;3.06;88.40;99056.00;5028393;28;20359;-74
2020/12/19 05:26:10;;;;;;;9.95;4.93;;;;;;;3.29;87.30;99056.44;5030871;28;20403;-74
2020/12/19 05:28:42;;;;;;;8.77;4.75;;;;;;;3.28;86.48;99060.13;5036303;28;20025;-74
2020/12/19 05:31:08;;;;;;;9.15;4.97;;;;;;;3.34;86.48;99042.63;5046382;28;20037;-76
2020/12/19 05:33:35;;;;;;;7.45;4.30;;;;;;;3.43;85.83;99050.59;5047595;28;20051;-75
2020/12/19 05:36:02;;;;;;;8.98;4.28;;;;;;;3.41;85.89;99057.91;5031098;28;20042;-74
2020/12/19 05:38:29;;;;;;;7.13;4.68;;;;;;;3.38;86.04;99063.56;5042362;28;20104;-76
2020/12/19 05:40:54;;;;;;;8.38;4.53;;;;;;;2.98;86.13;99031.84;5042408;28;20094;-76
2020/12/19 05:43:20;;;;;;;9.38;5.32;;;;;;;2.88;87.29;99044.44;5021837;28;20025;-74
2020/12/19 05:45:45;;;;;;;11.02;4.95;;;;;;;2.77;87.47;99059.66;5040466;28;20086;-78
2020/12/19 05:48:10;;;;;;;10.90;4.93;;;;;;;2.72;88.17;99061.94;5024629;28;20037;-75
2020/12/19 05:50:36;;;;;;;9.18;4.57;;;;;;;2.82;87.97;99043.19;5029965;28;20124;-74
2020/12/19 05:53:03;;;;;;;9.95;4.28;;;;;;;3.26;87.25;99057.56;5046457;28;20021;-75
2020/12/19 05:55:28;;;;;;;7.18;4.35;;;;;;;3.23;85.75;99027.63;5034706;28;20017;-76
2020/12/19 05:57:57;;;;;;;8.55;4.85;;;;;;;3.36;85.38;99062.88;5049617;28;20478;-74
2020/12/19 06:00:22;;;;;;;8.48;4.80;;;;;;;3.14;85.64;99037.38;5049711;28;20446;-75
2020/12/19 06:02:49;;;;;;;9.82;4.47;;;;;;;3.20;85.97;99058.19;5048087;28;20116;-75
2020/12/19 06:05:15;;;;;;;9.55;4.53;;;;;;;3.09;85.81;99047.69;5039406;28;20023;-82
2020/12/19 06:07:42;;;;;;;8.07;4.45;;;;;;;2.85;85.98;99046.41;5047363;28;20356;-75
2020/12/19 06:10:10;;;;;;;10.82;4.38;;;;;;;2.77;86.76;99062.34;5051661;28;20071;-77
2020/12/19 06:13:23;;;;;;;6.82;4.45;;;;;;;2.77;87.55;99065.00;5052386;28;20158;-76
2020/12/19 06:15:58;;;;;;;9.18;4.88;;;;;;;2.59;87.57;99074.78;5028221;28;20048;-73
2020/12/19 06:18:46;;;;;;;9.90;5.05;;;;;;;2.48;88.29;99062.44;5048939;28;20513;-69
2020/12/19 06:21:12;;;;;;;9.90;4.97;;;;;;;2.58;87.65;99070.44;5048920;28;20435;-69
2020/12/19 06:23:38;;;;;;;9.02;5.00;;;;;;;2.48;88.08;99072.28;5051317;28;20043;-69
2020/12/19 06:26:04;;;;;;;10.18;4.55;;;;;;;2.38;88.50;99067.84;5037676;28;20012;-69
2020/12/19 06:28:42;;;;;;;9.18;4.72;;;;;;;2.23;88.36;99061.25;5049573;28;20120;-69
2020/12/19 06:31:08;;;;;;;7.07;4.78;;;;;;;2.17;88.57;99064.47;5034288;28;20025;-69
2020/12/19 06:33:35;;;;;;;8.75;5.15;;;;;;;2.12;88.85;99072.09;5035202;28;20033;-67
2020/12/19 06:36:16;;;;;;;10.23;5.22;;;;;;;2.20;89.69;99074.88;5037075;28;20143;-70
2020/12/19 06:38:44;;;;;;;9.10;4.93;;;;;;;2.10;89.45;99066.06;5041663;28;20044;-81
2020/12/19 06:41:30;;;;;;;8.48;4.65;;;;;;;2.19;89.70;99054.50;5035942;28;20021;-83
2020/12/19 06:44:06;;;;;;;7.78;4.60;;;;;;;2.29;88.77;99051.84;5042066;28;20016;-83
2020/12/19 06:46:32;;;;;;;9.15;4.85;;;;;;;2.19;89.01;99052.69;5029222;28;20048;-84
2020/12/19 06:48:57;;;;;;;9.23;5.10;;;;;;;1.91;88.63;99017.09;5034665;28;20058;-83
2020/12/19 06:51:22;;;;;;;8.60;5.32;;;;;;;1.94;88.48;99016.78;5055288;28;20470;-81
2020/12/19 06:53:55;;;;;;;12.10;5.13;;;;;;;1.98;88.73;99036.84;5055484;28;20037;-82
2020/12/19 06:56:27;;;;;;;7.28;4.65;;;;;;;2.06;88.96;99062.00;5041653;28;20055;-77
2020/12/19 06:59:00;;;;;;;11.48;4.95;;;;;;;1.92;88.77;99045.44;5043586;28;20025;-76
2020/12/19 07:01:30;;;;;;;13.13;5.50;;;;;;;2.12;89.06;99048.06;5051854;28;20425;-76
2020/12/19 07:03:56;;;;;;;9.85;5.05;;;;;;;2.22;89.45;99070.25;5033943;28;20570;-75
2020/12/19 07:06:21;;;;;;;8.13;4.28;;;;;;;2.28;88.87;99080.38;5038321;28;20108;-69
2020/12/19 07:08:47;;;;;;;9.00;4.78;;;;;;;2.30;88.89;99078.38;5042508;28;20674;-74
2020/12/19 07:11:33;;;;;;;10.27;5.07;;;;;;;2.38;88.28;99072.31;5045663;28;20525;-73
2020/12/19 07:13:59;;;;;;;9.30;4.38;;;;;;;2.50;87.64;99087.19;5043177;28;20025;-74
2020/12/19 07:16:45;;;;;;;9.50;4.50;;;;;;;2.46;87.94;99080.44;5030885;28;20446;-74
2020/12/19 07:19:28;;;;;;;8.43;4.70;;;;;;;2.51;87.65;99082.69;5034455;28;20032;-74
2020/12/19 07:21:56;;;;;;;9.07;4.90;;;;;;;2.55;87.61;99089.44;5033558;28;20132;-74
2020/12/19 07:24:22;;;;;;;7.15;4.35;;;;;;;2.57;87.20;99087.47;5036731;28;20028;-74
2020/12/19 07:26:48;;;;;;;10.57;4.85;;;;;;;2.44;87.14;99071.75;5038458;28;20033;-74
2020/12/19 07:29:16;;;;;;;9.48;4.90;;;;;;;2.59;86.71;99098.81;5024629;28;20112;-74
2020/12/19 07:31:46;;;;;;;8.02;4.75;;;;;;;2.61;86.20;99095.00;5036498;28;20113;-74
2020/12/19 07:34:12;;;;;;;8.43;5.15;;;;;;;2.47;86.56;99086.66;5038466;28;20028;-74
2020/12/19 07:36:39;;;;;;;11.68;5.55;;;;;;;2.43;86.38;99104.75;5025629;28;20024;-74
2020/12/19 07:39:05;;;;;;;9.60;5.45;;;;;;;2.26;86.73;99084.16;5031145;28;20120;-73
2020/12/19 07:41:30;;;;;;;8.32;5.07;;;;;;;2.37;85.81;99078.66;5042568;28;20830;-73
2020/12/19 07:44:09;;;;;;;10.25;6.25;;;;;;;2.49;85.42;99087.31;5037659;28;20027;-74
2020/12/19 07:46:35;;;;;;;11.65;6.55;;;;;;;2.28;85.12;99067.00;5037762;28;20052;-73
2020/12/19 07:49:00;;;;;;;10.35;5.93;;;;;;;2.31;85.95;99093.41;5036004;28;20026;-72
2020/12/19 07:51:25;;;;;;;9.27;5.70;;;;;;;2.25;86.24;99104.66;5040996;28;20036;-77
2020/12/19 07:53:51;;;;;;;13.13;6.70;;;;;;;2.21;86.66;99092.59;5046576;28;20116;-73
2020/12/19 07:56:16;;;;;;;10.15;5.60;;;;;;;2.27;86.22;99092.00;5047626;28;20029;-78
2020/12/19 07:58:44;;;;;;;10.02;6.80;;;;;;;2.35;85.99;99101.97;5051356;28;20032;-74
2020/12/19 08:01:09;;;;;;;11.52;6.60;;;;;;;2.20;85.96;99072.19;5039733;28;20055;-71
2020/12/19 08:03:34;;;;;;;11.80;5.53;;;;;;;2.39;85.85;99093.53;5052294;28;20107;-77
2020/12/19 08:06:00;;;;;;;11.93;5.93;;;;;;;2.36;85.53;99085.81;5047072;28;20048;-78
2020/12/19 08:08:25;;;;;;;18.35;8.27;;;;;;;2.24;85.42;99070.94;5051228;28;20036;-78
2020/12/19 08:10:59;;;;;;;66.05;23.60;;;;;;;2.36;85.19;99093.00;5050654;28;20078;-80
2020/12/19 08:13:26;;;;;;;34.70;14.75;;;;;;;2.45;85.45;99104.63;5054654;28;20443;-76
2020/12/19 08:15:55;;;;;;;34.65;16.42;;;;;;;2.39;85.81;99085.53;5055795;28;20442;-76
2020/12/19 08:18:21;;;;;;;22.20;10.38;;;;;;;2.57;85.83;99101.66;5054735;28;20025;-72
2020/12/19 08:20:47;;;;;;;8.95;5.30;;;;;;;2.52;85.73;99068.34;5051694;28;20075;-86
2020/12/19 08:23:13;;;;;;;8.73;4.70;;;;;;;2.89;84.85;99108.44;5052150;28;20108;-69
2020/12/19 08:25:39;;;;;;;8.00;4.63;;;;;;;3.08;85.00;99102.97;5050366;28;20115;-76
2020/12/19 08:28:04;;;;;;;7.95;4.55;;;;;;;3.14;83.89;99080.16;5032684;28;20028;-76
2020/12/19 08:30:31;;;;;;;9.95;4.40;;;;;;;3.34;83.83;99101.44;5050683;28;20040;-78
2020/12/19 08:33:08;;;;;;;8.55;4.70;;;;;;;3.51;82.84;99103.28;5044129;28;20471;-74
2020/12/19 08:35:44;;;;;;;7.50;4.53;;;;;;;4.00;81.84;99109.13;5050441;28;20103;-71
2020/12/19 08:38:16;;;;;;;9.07;4.35;;;;;;;4.91;78.27;99107.94;5047810;28;20109;-81
2020/12/19 08:40:44;;;;;;;6.88;4.15;;;;;;;6.88;72.32;99101.00;5051094;28;20016;-74
2020/12/19 08:43:11;;;;;;;5.90;3.72;;;;;;;8.70;65.92;99100.56;5050159;28;20639;-68
2020/12/19 08:46:06;;;;;;;7.38;3.65;;;;;;;9.50;63.08;99097.06;5046118;28;20040;-69
2020/12/19 08:48:31;;;;;;;6.40;3.63;;;;;;;11.46;57.83;99101.03;5030760;28;20025;-69
2020/12/19 08:50:56;;;;;;;7.28;3.60;;;;;;;12.22;55.80;99094.59;5029248;28;20040;-70
2020/12/19 08:53:25;;;;;;;10.13;3.75;;;;;;;13.22;53.47;99103.50;5042230;28;20025;-70
2020/12/19 08:55:52;;;;;;;6.88;3.70;;;;;;;13.48;51.54;99101.78;5048921;28;20477;-69
2020/12/19 08:58:26;;;;;;;5.63;3.65;;;;;;;13.79;50.31;99109.19;5033907;28;20038;-71
2020/12/19 09:00:59;;;;;;;8.32;5.90;;;;;;;13.94;50.92;99100.75;5036017;28;20029;-70
2020/12/19 09:03:30;;;;;;;16.13;11.02;;;;;;;15.76;47.06;99098.69;5039090;28;20064;-70
2020/12/19 09:06:06;;;;;;;15.75;10.82;;;;;;;14.95;49.59;99091.59;5045883;28;20043;-71
2020/12/19 09:08:36;;;;;;;16.17;11.15;;;;;;;15.58;46.81;99104.13;5026572;28;20402;-72
2020/12/19 09:11:03;;;;;;;13.20;8.85;;;;;;;16.26;46.08;99097.56;5039414;28;20035;-72
2020/12/19 09:13:28;;;;;;;13.25;9.23;;;;;;;15.66;47.21;99108.44;5037096;28;20033;-74
2020/12/19 09:16:00;;;;;;;12.20;6.93;;;;;;;16.63;44.87;99095.50;5042666;28;20047;-71
2020/12/19 09:18:32;;;;;;;6.93;4.28;;;;;;;16.44;45.25;99099.38;5041638;28;20021;-72
2020/12/19 09:20:58;;;;;;;5.30;3.83;;;;;;;16.07;46.30;99117.81;5040389;28;20037;-72
2020/12/19 09:23:25;;;;;;;6.35;4.20;;;;;;;15.24;47.14;99111.00;5038412;28;20033;-72
2020/12/19 09:25:53;;;;;;;6.45;4.35;;;;;;;15.75;45.69;99086.09;5054132;28;20591;-71
2020/12/19 09:28:18;;;;;;;6.13;4.03;;;;;;;15.45;47.23;99102.38;5051404;28;20041;-71
2020/12/19 09:30:44;;;;;;;5.43;3.75;;;;;;;15.58;46.75;99104.13;5043653;28;20055;-70
2020/12/19 09:33:10;;;;;;;8.07;4.10;;;;;;;15.51;46.82;99111.53;5065891;28;20032;-71
2020/12/19 09:35:35;;;;;;;6.75;4.57;;;;;;;16.24;45.88;99094.22;5060236;28;20131;-66
2020/12/19 09:38:01;;;;;;;6.85;4.35;;;;;;;16.15;45.99;99112.00;5052295;28;20036;-71
2020/12/19 09:40:26;;;;;;;7.80;4.55;;;;;;;16.35;46.07;99100.81;5057657;28;20079;-69
2020/12/19 09:42:52;;;;;;;24.00;12.27;;;;;;;16.55;44.99;99086.81;5064417;28;20036;-71
2020/12/19 09:45:17;;;;;;;35.72;16.75;;;;;;;15.84;46.05;99105.72;5064979;28;20025;-69
2020/12/19 09:47:43;;;;;;;21.20;9.73;;;;;;;15.85;46.55;99106.53;5060491;28;20043;-68
2020/12/19 09:50:09;;;;;;;22.58;12.23;;;;;;;16.61;44.86;99097.66;5061650;28;20024;-67
2020/12/19 09:52:35;;;;;;;13.55;7.95;;;;;;;16.24;45.61;99110.59;5059146;28;20083;-69
2020/12/19 09:55:01;;;;;;;10.15;6.72;;;;;;;16.59;45.35;99107.16;5055979;28;20029;-70
2020/12/19 09:57:26;;;;;;;7.65;5.45;;;;;;;17.14;43.71;99104.13;5050259;28;20029;-69
2020/12/19 09:59:51;;;;;;;7.65;4.80;;;;;;;17.23;43.70;99099.94;5048218;28;20032;-70
2020/12/19 10:02:17;;;;;;;9.90;4.30;;;;;;;18.53;42.55;99105.81;5068587;28;20022;-69
2020/12/19 10:04:42;;;;;;;5.97;4.07;;;;;;;19.59;40.55;99093.97;5064871;28;20056;-67
2020/12/19 10:07:07;;;;;;;8.07;4.63;;;;;;;19.52;40.07;99092.47;5066280;28;20021;-66
2020/12/19 10:09:32;;;;;;;7.85;4.20;;;;;;;19.08;41.23;99085.06;5062717;28;20036;-67
2020/12/19 10:11:58;;;;;;;5.82;4.07;;;;;;;18.65;41.25;99082.97;5058379;28;20215;-68
2020/12/19 10:14:23;;;;;;;8.25;3.95;;;;;;;19.82;40.13;99084.66;5056979;28;20076;-69
2020/12/19 10:16:48;;;;;;;5.03;3.60;;;;;;;20.15;39.42;99080.09;5063849;28;20021;-67
2020/12/19 10:19:14;;;;;;;5.78;3.55;;;;;;;20.97;37.85;99076.13;5066007;28;20035;-67
2020/12/19 10:21:39;;;;;;;6.03;3.92;;;;;;;20.35;39.13;99077.50;5060916;28;20028;-67
2020/12/19 10:24:04;;;;;;;9.32;3.95;;;;;;;19.16;40.50;99075.56;5056539;28;20033;-68
2020/12/19 10:26:29;;;;;;;9.70;4.57;;;;;;;19.59;40.18;99073.94;5056301;28;20498;-68
2020/12/19 10:28:55;;;;;;;7.82;5.03;;;;;;;20.67;38.49;99063.00;5055137;28;20086;-69
2020/12/19 10:31:26;;;;;;;6.00;4.10;;;;;;;20.47;39.13;99066.38;5036205;28;20017;-68
2020/12/19 10:33:51;;;;;;;6.90;4.10;;;;;;;20.56;38.88;99064.81;5034956;28;20020;-69
2020/12/19 10:36:17;;;;;;;6.38;3.78;;;;;;;19.92;39.77;99068.31;5043061;28;20031;-69
2020/12/19 10:38:42;;;;;;;6.65;3.92;;;;;;;21.49;37.48;99063.53;5055415;28;20078;-70
2020/12/19 10:41:11;;;;;;;5.78;3.88;;;;;;;21.18;37.99;99041.31;5055007;28;20062;-67
2020/12/19 10:43:36;;;;;;;5.50;3.53;;;;;;;22.28;36.60;99047.78;5049826;28;20544;-69
2020/12/19 10:46:02;;;;;;;5.78;3.80;;;;;;;21.53;37.29;99047.28;5055770;28;20029;-72
2020/12/19 10:48:27;;;;;;;4.78;3.65;;;;;;;22.14;36.52;99047.47;5041241;28;20429;-66
2020/12/19 10:50:52;;;;;;;6.10;3.13;;;;;;;23.06;35.81;99047.50;5055709;28;20032;-75
2020/12/19 10:53:17;;;;;;;4.95;3.33;;;;;;;22.24;36.58;99050.28;5036695;28;20066;-67
2020/12/19 10:55:43;;;;;;;5.22;3.92;;;;;;;23.12;35.53;99040.84;5055064;28;20029;-68
2020/12/19 10:58:08;;;;;;;7.53;3.13;;;;;;;23.30;35.17;99035.84;5049947;28;20078;-68
2020/12/19 11:00:33;;;;;;;5.43;3.50;;;;;;;23.39;34.44;99034.97;5033724;28;20395;-68
2020/12/19 11:02:59;;;;;;;5.00;3.40;;;;;;;22.32;35.60;99035.09;5035437;28;20029;-68
2020/12/19 11:05:24;;;;;;;5.28;3.42;;;;;;;20.48;39.03;99032.28;5039243;28;20025;-67
2020/12/19 11:07:49;;;;;;;4.57;2.97;;;;;;;21.45;38.14;99026.59;5037666;28;20040;-67
2020/12/19 11:10:15;;;;;;;4.75;3.10;;;;;;;22.20;36.59;99023.53;5030726;28;20061;-67
2020/12/19 11:12:40;;;;;;;4.03;2.92;;;;;;;22.81;35.67;99028.19;5032474;28;20045;-67
2020/12/19 11:15:05;;;;;;;6.07;2.78;;;;;;;23.35;34.98;99016.50;5034369;28;20432;-67
2020/12/19 11:17:31;;;;;;;4.15;2.78;;;;;;;22.22;37.02;99022.16;5030896;28;20433;-67
2020/12/19 11:19:57;;;;;;;4.93;3.15;;;;;;;20.75;37.89;98999.28;5035925;28;20053;-67
2020/12/19 11:22:22;;;;;;;4.47;3.60;;;;;;;18.96;41.40;99021.25;5045018;28;20447;-67
2020/12/19 11:24:47;;;;;;;4.28;2.97;;;;;;;20.03;40.40;99016.22;5034065;28;20029;-67
2020/12/19 11:27:13;;;;;;;5.70;3.38;;;;;;;19.08;41.51;99012.94;5041378;28;20037;-66
2020/12/19 11:29:38;;;;;;;5.90;3.33;;;;;;;18.80;42.09;98996.34;5030944;28;20044;-66
2020/12/19 11:32:04;;;;;;;6.38;3.05;;;;;;;19.76;40.50;99003.34;5031550;28;20490;-74